AirNav   Everest Fuels
 
 1073 users online  

5CN4 Vosburgh Airfield
Cuyama, California, USA

GOING TO CUYAMA?


FAA INFORMATION EFFECTIVE 30 JANUARY 2020

Location

FAA Identifier: 5CN4
Lat/Long: 34-55-25.0800N 119-34-17.4000W
34-55.418000N 119-34.290000W
34.9236333,-119.5715000
(estimated)
Elevation: 2200 ft. / 671 m (estimated)
From city: 3 miles E of CUYAMA, CA
Time zone: UTC -8 (UTC -7 during Daylight Saving Time)
Zip code: 93254

Airport Operations

Airport use: Private use. Permission required prior to landing
Activation date: 02/2011
Control tower: no
ARTCC: LOS ANGELES CENTER
FSS: RANCHO MURIETA FLIGHT SERVICE STATION
Attendance: CONTINUOUS
Wind indicator: yes
Segmented circle: no

Nearby radio navigation aids

VOR radial/distance  VOR name  Freq  Var
FLWr109/17.7FELLOWS VOR/DME117.5016E
RZSr008/26.7SAN MARCUS VORTAC114.9014E
GVOr031/34.8GAVIOTA VORTAC113.8016E
GMNr266/35.7GORMAN VORTAC116.1016E

Airport Services

Runway Information

Runway 16/34

Dimensions: 2600 x 60 ft. / 792 x 18 m
Surface: dirt, in good condition
RUNWAY 16  RUNWAY 34
Traffic pattern: leftleft
Obstructions: 30 ft. plines, 50 ft. from runwaynone

Airport Ownership and Management from official FAA records

Ownership: Privately-owned
Owner: JASON DOUGLAS VOSBURGH
162 MANLEY CHAPEL RD
FAIRMONT, WV 26554-5359
Phone 805-766-3880
Manager: JASON VOSBURGH
1654 HWY 166
CUYAMA, CA 93254
Phone 805-766-3880

Airport Operational Statistics

Aircraft based on the field: 1
Single engine airplanes: 1
    

Additional Remarks

FOR CD CTC LOS ANGELES ARTCC AT 661-575-2079.

Instrument Procedures

There are no published instrument procedures at 5CN4.

Some nearby airports with instrument procedures:

KIZA - Santa Ynez Airport (31 nm SW)
KSBA - Santa Barbara Municipal Airport (33 nm SW)
L45 - Bakersfield Municipal Airport (37 nm NE)
KBFL - Meadows Field Airport (40 nm NE)
KMIT - Shafter Airport-Minter Field (40 nm NE)
 
Loc | Ops | Rwys | IFR | FBO | Links
Com | Nav | Svcs | Stats | Notes
Aerial photo
WARNING: Photo may not be current or correct
Aerial photo of 5CN4 (Vosburgh Airfield)
Photo by Jason Vosburgh
Photo taken 28-May-2011

Do you have a better or more recent aerial photo of Vosburgh Airfield that you would like to share? If so, please send us your photo.

 
Sectional chart

 
Airport distance calculator
Flying to Vosburgh Airfield? Find the distance to fly.

From to 5CN4

Sunrise and sunset
Times for 23-Feb-2020
 Local
(UTC-8)
 Zulu
(UTC)
Morning civil twilight06:1014:10
Sunrise06:3614:36
Sunset17:4701:47
Evening civil twilight18:1302:13

Current date and time
Zulu (UTC)  23-Feb-2020 17:53:39
Local (UTC-8)  23-Feb-2020 09:53:39
 
METAR
KIZA 
31nm SW 
231735Z AUTO 36003KT 10SM OVC019 11/06 A3033 RMK AO2
KSBA 
32nm SW 
231653Z 00000KT 10SM CLR 14/07 A3028 RMK AO2 SLP252 T01440072 $
KBFL 
40nm NE 
231654Z 17005KT 10SM CLR 13/07 A3030 RMK AO2 SLP259 T01280067
KSMX 
43nm W 
231651Z 35009KT 10SM BKN027 14/06 A3034 RMK AO2 SLP275 T01390061
KSDB 
43nm E 
231653Z AUTO VRB03KT 10SM CLR 09/03 A3027 RMK AO2 SLP235 T00890033 $
KLPC 
47nm W 
231656Z AUTO 32008KT 10SM OVC027 13/07 A3034 RMK AO2 SLP275 T01280072
KOXR 
47nm SE 
231651Z 08004KT 10SM CLR 13/09 A3028 RMK AO2 SLP253 T01330094
KCMA 
49nm SE 
231655Z 00000KT 8SM CLR 14/10 A3028 RMK AO2 SLP261 T01440100
TAF
KSBA 
32nm SW 
231154Z 2312/2412 35004KT P6SM SCT015 SCT040 FM231700 25010KT P6SM FEW020 SCT040 FM232000 26012KT P6SM FEW040 SCT250 FM240100 33008KT P6SM SCT250 FM240500 01006KT P6SM SKC
KBFL 
40nm NE 
231133Z 2312/2412 05007KT P6SM SCT045 FM231700 33004KT P6SM FEW250 FM240600 VRB03KT P6SM BKN250
NOTAMs
Click for the latest NOTAMs
NOTAMs are issued by the DoD/FAA and will open in a separate window not controlled by AirNav.

 

 
 

Would you like to see your business listed on this page?

 If your business provides an interesting product or service to pilots, flight crews, aircraft, or users of the Vosburgh Airfield, you should consider listing it here.  To start the listing process, click on the button below
 
Add a business
 

Other Pages about Vosburgh Airfield

Update a link
 
Copyright © AirNav, LLC. All rights reserved. Privacy Policy  Contact